sensor_id;sensor_type;location;lat;lon;timestamp;pressure;altitude;pressure_sealevel;temperature;humidity
70745;BME280;59284;31.390;34.904;2022-10-31T00:01:25;93698.50;;;16.99;100.00
70745;BME280;59284;31.390;34.904;2022-10-31T00:03:51;93704.47;;;16.96;100.00
70745;BME280;59284;31.390;34.904;2022-10-31T00:06:16;93704.09;;;16.94;100.00
70745;BME280;59284;31.390;34.904;2022-10-31T00:08:52;93709.25;;;16.91;100.00
70745;BME280;59284;31.390;34.904;2022-10-31T00:11:18;93712.56;;;16.88;100.00
70745;BME280;59284;31.390;34.904;2022-10-31T00:13:44;93707.00;;;16.89;100.00
70745;BME280;59284;31.390;34.904;2022-10-31T00:16:14;93723.47;;;16.90;100.00
70745;BME280;59284;31.390;34.904;2022-10-31T00:18:40;93730.19;;;16.87;100.00
70745;BME280;59284;31.390;34.904;2022-10-31T00:21:06;93735.06;;;16.89;100.00
70745;BME280;59284;31.390;34.904;2022-10-31T00:23:33;93734.69;;;16.90;100.00
70745;BME280;59284;31.390;34.904;2022-10-31T00:26:03;93721.69;;;16.97;100.00
70745;BME280;59284;31.390;34.904;2022-10-31T00:28:29;93728.88;;;17.04;100.00
70745;BME280;59284;31.390;34.904;2022-10-31T00:31:02;93730.88;;;17.10;100.00
70745;BME280;59284;31.390;34.904;2022-10-31T00:33:29;93733.25;;;17.22;100.00
70745;BME280;59284;31.390;34.904;2022-10-31T00:35:56;93737.34;;;17.20;100.00
70745;BME280;59284;31.390;34.904;2022-10-31T00:38:22;93738.09;;;17.20;100.00
70745;BME280;59284;31.390;34.904;2022-10-31T00:40:47;93731.41;;;17.23;100.00
70745;BME280;59284;31.390;34.904;2022-10-31T00:43:13;93729.44;;;17.16;100.00
70745;BME280;59284;31.390;34.904;2022-10-31T00:45:39;93722.63;;;17.08;100.00
70745;BME280;59284;31.390;34.904;2022-10-31T00:48:06;93725.31;;;17.15;100.00
70745;BME280;59284;31.390;34.904;2022-10-31T00:50:32;93723.81;;;17.14;100.00
70745;BME280;59284;31.390;34.904;2022-10-31T00:52:58;93723.09;;;17.17;100.00
70745;BME280;59284;31.390;34.904;2022-10-31T00:55:23;93721.94;;;17.15;100.00
70745;BME280;59284;31.390;34.904;2022-10-31T00:57:49;93735.06;;;17.15;100.00
70745;BME280;59284;31.390;34.904;2022-10-31T01:00:15;93724.59;;;17.18;100.00
70745;BME280;59284;31.390;34.904;2022-10-31T01:02:41;93724.38;;;17.30;100.00
70745;BME280;59284;31.390;34.904;2022-10-31T01:05:07;93716.13;;;17.28;100.00
70745;BME280;59284;31.390;34.904;2022-10-31T01:07:37;93711.72;;;17.36;100.00
70745;BME280;59284;31.390;34.904;2022-10-31T01:10:03;93709.44;;;17.31;100.00
70745;BME280;59284;31.390;34.904;2022-10-31T01:12:29;93698.84;;;17.24;100.00
70745;BME280;59284;31.390;34.904;2022-10-31T01:14:55;93706.16;;;17.11;100.00
70745;BME280;59284;31.390;34.904;2022-10-31T01:17:21;93698.31;;;17.11;100.00
70745;BME280;59284;31.390;34.904;2022-10-31T01:19:48;93693.13;;;17.15;100.00
70745;BME280;59284;31.390;34.904;2022-10-31T01:22:13;93683.78;;;17.17;100.00
70745;BME280;59284;31.390;34.904;2022-10-31T01:24:39;93693.53;;;17.17;100.00
70745;BME280;59284;31.390;34.904;2022-10-31T01:27:05;93690.31;;;17.30;100.00
70745;BME280;59284;31.390;34.904;2022-10-31T01:29:30;93687.22;;;17.21;100.00
70745;BME280;59284;31.390;34.904;2022-10-31T01:31:56;93675.56;;;17.19;100.00
70745;BME280;59284;31.390;34.904;2022-10-31T01:34:22;93674.50;;;17.23;100.00
70745;BME280;59284;31.390;34.904;2022-10-31T01:36:48;93680.91;;;17.26;100.00
70745;BME280;59284;31.390;34.904;2022-10-31T01:39:17;93665.19;;;17.26;100.00
70745;BME280;59284;31.390;34.904;2022-10-31T01:41:47;93665.59;;;17.31;100.00
70745;BME280;59284;31.390;34.904;2022-10-31T01:46:50;93653.56;;;17.27;100.00
70745;BME280;59284;31.390;34.904;2022-10-31T01:49:34;93651.41;;;17.36;100.00
70745;BME280;59284;31.390;34.904;2022-10-31T01:52:20;93651.88;;;17.41;100.00
70745;BME280;59284;31.390;34.904;2022-10-31T01:54:53;93644.78;;;17.45;100.00
70745;BME280;59284;31.390;34.904;2022-10-31T01:57:22;93630.59;;;17.50;100.00
70745;BME280;59284;31.390;34.904;2022-10-31T01:59:51;93634.47;;;17.60;100.00
70745;BME280;59284;31.390;34.904;2022-10-31T02:02:19;93627.66;;;17.51;100.00
70745;BME280;59284;31.390;34.904;2022-10-31T02:04:47;93627.31;;;17.53;100.00
70745;BME280;59284;31.390;34.904;2022-10-31T02:07:22;93625.50;;;17.61;100.00
70745;BME280;59284;31.390;34.904;2022-10-31T02:09:51;93611.28;;;17.62;100.00
70745;BME280;59284;31.390;34.904;2022-10-31T02:12:19;93600.00;;;17.58;100.00
70745;BME280;59284;31.390;34.904;2022-10-31T02:14:46;93591.63;;;17.48;100.00
70745;BME280;59284;31.390;34.904;2022-10-31T02:17:12;93589.25;;;17.36;100.00
70745;BME280;59284;31.390;34.904;2022-10-31T02:23:03;93598.09;;;17.21;100.00
70745;BME280;59284;31.390;34.904;2022-10-31T02:34:13;93609.22;;;17.11;100.00
70745;BME280;59284;31.390;34.904;2022-10-31T02:36:56;93618.38;;;17.24;100.00
70745;BME280;59284;31.390;34.904;2022-10-31T02:39:53;93618.28;;;17.17;100.00
70745;BME280;59284;31.390;34.904;2022-10-31T02:42:40;93620.41;;;17.08;100.00
70745;BME280;59284;31.390;34.904;2022-10-31T02:45:13;93610.94;;;17.00;100.00
70745;BME280;59284;31.390;34.904;2022-10-31T02:47:41;93621.25;;;16.86;100.00
70745;BME280;59284;31.390;34.904;2022-10-31T02:50:09;93630.25;;;16.85;100.00
70745;BME280;59284;31.390;34.904;2022-10-31T02:52:36;93641.13;;;16.87;100.00
70745;BME280;59284;31.390;34.904;2022-10-31T02:55:44;93648.59;;;16.89;100.00
70745;BME280;59284;31.390;34.904;2022-10-31T02:58:09;93656.34;;;16.78;100.00
70745;BME280;59284;31.390;34.904;2022-10-31T03:06:30;93681.16;;;16.61;100.00
70745;BME280;59284;31.390;34.904;2022-10-31T03:09:20;93680.00;;;16.59;100.00
70745;BME280;59284;31.390;34.904;2022-10-31T03:12:17;93678.91;;;16.60;100.00
70745;BME280;59284;31.390;34.904;2022-10-31T03:17:42;93696.00;;;16.54;100.00
70745;BME280;59284;31.390;34.904;2022-10-31T03:20:11;93690.59;;;16.43;100.00
70745;BME280;59284;31.390;34.904;2022-10-31T03:22:39;93693.97;;;16.44;100.00
70745;BME280;59284;31.390;34.904;2022-10-31T03:25:07;93691.34;;;16.44;100.00
70745;BME280;59284;31.390;34.904;2022-10-31T03:27:35;93698.78;;;16.42;100.00
70745;BME280;59284;31.390;34.904;2022-10-31T03:30:04;93701.72;;;16.37;100.00
70745;BME280;59284;31.390;34.904;2022-10-31T03:32:43;93714.06;;;16.40;100.00
70745;BME280;59284;31.390;34.904;2022-10-31T03:35:10;93701.59;;;16.30;100.00
70745;BME280;59284;31.390;34.904;2022-10-31T03:37:39;93706.47;;;16.31;100.00
70745;BME280;59284;31.390;34.904;2022-10-31T03:40:07;93718.47;;;16.32;100.00
70745;BME280;59284;31.390;34.904;2022-10-31T03:42:40;93722.53;;;16.30;100.00
70745;BME280;59284;31.390;34.904;2022-10-31T03:45:23;93720.03;;;16.37;100.00
70745;BME280;59284;31.390;34.904;2022-10-31T03:47:50;93723.03;;;16.39;100.00
70745;BME280;59284;31.390;34.904;2022-10-31T03:50:17;93722.00;;;16.43;100.00
70745;BME280;59284;31.390;34.904;2022-10-31T03:52:45;93727.16;;;16.40;100.00
70745;BME280;59284;31.390;34.904;2022-10-31T03:55:19;93736.28;;;16.49;100.00
70745;BME280;59284;31.390;34.904;2022-10-31T03:57:52;93735.63;;;16.52;100.00
70745;BME280;59284;31.390;34.904;2022-10-31T04:00:22;93724.41;;;16.52;100.00
70745;BME280;59284;31.390;34.904;2022-10-31T04:03:00;93736.53;;;16.63;100.00
70745;BME280;59284;31.390;34.904;2022-10-31T04:05:29;93726.59;;;16.72;100.00
70745;BME280;59284;31.390;34.904;2022-10-31T04:07:58;93724.41;;;17.04;100.00
70745;BME280;59284;31.390;34.904;2022-10-31T04:10:25;93708.00;;;17.07;100.00
70745;BME280;59284;31.390;34.904;2022-10-31T04:13:06;93694.38;;;17.24;100.00
70745;BME280;59284;31.390;34.904;2022-10-31T04:15:33;93671.44;;;17.18;100.00
70745;BME280;59284;31.390;34.904;2022-10-31T04:18:04;93659.56;;;17.27;100.00
70745;BME280;59284;31.390;34.904;2022-10-31T04:20:36;93644.63;;;17.31;100.00
70745;BME280;59284;31.390;34.904;2022-10-31T04:23:02;93625.88;;;17.29;100.00
70745;BME280;59284;31.390;34.904;2022-10-31T04:25:28;93606.47;;;17.34;100.00
70745;BME280;59284;31.390;34.904;2022-10-31T04:27:54;93576.72;;;17.52;100.00
70745;BME280;59284;31.390;34.904;2022-10-31T04:30:20;93536.88;;;17.40;100.00
70745;BME280;59284;31.390;34.904;2022-10-31T04:32:46;93510.72;;;17.47;100.00
70745;BME280;59284;31.390;34.904;2022-10-31T04:35:13;93485.13;;;17.74;100.00
70745;BME280;59284;31.390;34.904;2022-10-31T04:37:38;93448.06;;;17.79;100.00
70745;BME280;59284;31.390;34.904;2022-10-31T04:40:05;93397.19;;;17.97;100.00
70745;BME280;59284;31.390;34.904;2022-10-31T04:42:31;93345.50;;;18.12;100.00
70745;BME280;59284;31.390;34.904;2022-10-31T04:44:57;93296.91;;;18.46;100.00
70745;BME280;59284;31.390;34.904;2022-10-31T04:47:22;93209.06;;;18.79;100.00
70745;BME280;59284;31.390;34.904;2022-10-31T04:49:49;93108.75;;;19.16;100.00
70745;BME280;59284;31.390;34.904;2022-10-31T04:52:14;93018.53;;;18.57;100.00
70745;BME280;59284;31.390;34.904;2022-10-31T04:54:40;92973.09;;;18.67;100.00
70745;BME280;59284;31.390;34.904;2022-10-31T04:57:07;92951.78;;;18.47;100.00
70745;BME280;59284;31.390;34.904;2022-10-31T04:59:32;92945.22;;;18.83;100.00
70745;BME280;59284;31.390;34.904;2022-10-31T05:01:58;92911.78;;;18.91;100.00
70745;BME280;59284;31.390;34.904;2022-10-31T05:04:24;92900.53;;;18.90;100.00
70745;BME280;59284;31.390;34.904;2022-10-31T05:06:49;92884.91;;;18.69;100.00
70745;BME280;59284;31.390;34.904;2022-10-31T05:09:15;92868.38;;;18.72;100.00
70745;BME280;59284;31.390;34.904;2022-10-31T05:11:41;92862.03;;;18.66;100.00
70745;BME280;59284;31.390;34.904;2022-10-31T05:14:06;92861.81;;;19.02;100.00
70745;BME280;59284;31.390;34.904;2022-10-31T05:16:32;92841.75;;;19.18;100.00
70745;BME280;59284;31.390;34.904;2022-10-31T05:18:58;92841.03;;;19.18;100.00
70745;BME280;59284;31.390;34.904;2022-10-31T05:21:23;92873.63;;;18.72;100.00
70745;BME280;59284;31.390;34.904;2022-10-31T05:23:49;92894.38;;;18.42;100.00
70745;BME280;59284;31.390;34.904;2022-10-31T05:26:15;92890.28;;;19.07;100.00
70745;BME280;59284;31.390;34.904;2022-10-31T05:28:40;92891.16;;;18.89;100.00
70745;BME280;59284;31.390;34.904;2022-10-31T05:31:06;92879.75;;;19.95;100.00
70745;BME280;59284;31.390;34.904;2022-10-31T05:33:31;92861.22;;;20.36;100.00
70745;BME280;59284;31.390;34.904;2022-10-31T05:35:57;92841.47;;;20.78;100.00
70745;BME280;59284;31.390;34.904;2022-10-31T05:38:23;92865.13;;;20.28;100.00
70745;BME280;59284;31.390;34.904;2022-10-31T05:40:48;92880.94;;;19.87;100.00
70745;BME280;59284;31.390;34.904;2022-10-31T05:43:14;92900.81;;;19.95;100.00
70745;BME280;59284;31.390;34.904;2022-10-31T05:45:40;92895.91;;;20.31;100.00
70745;BME280;59284;31.390;34.904;2022-10-31T05:48:06;92930.00;;;19.16;100.00
70745;BME280;59284;31.390;34.904;2022-10-31T05:50:32;92951.16;;;19.53;100.00
70745;BME280;59284;31.390;34.904;2022-10-31T05:53:03;92962.59;;;19.36;100.00
70745;BME280;59284;31.390;34.904;2022-10-31T05:55:29;92983.41;;;19.06;100.00
70745;BME280;59284;31.390;34.904;2022-10-31T05:57:57;92992.38;;;19.12;100.00
70745;BME280;59284;31.390;34.904;2022-10-31T06:00:24;92980.91;;;19.50;100.00
70745;BME280;59284;31.390;34.904;2022-10-31T06:03:00;92971.63;;;19.28;100.00
70745;BME280;59284;31.390;34.904;2022-10-31T06:05:27;92961.22;;;19.65;100.00
70745;BME280;59284;31.390;34.904;2022-10-31T06:07:53;92942.00;;;20.46;100.00
70745;BME280;59284;31.390;34.904;2022-10-31T06:10:18;92938.19;;;20.51;100.00
70745;BME280;59284;31.390;34.904;2022-10-31T06:12:46;92957.38;;;20.14;100.00
70745;BME280;59284;31.390;34.904;2022-10-31T06:15:13;92959.88;;;20.62;100.00
70745;BME280;59284;31.390;34.904;2022-10-31T06:17:39;92976.63;;;20.45;100.00
70745;BME280;59284;31.390;34.904;2022-10-31T06:20:05;92977.09;;;21.00;100.00
70745;BME280;59284;31.390;34.904;2022-10-31T06:22:31;93046.69;;;20.76;100.00
70745;BME280;59284;31.390;34.904;2022-10-31T06:24:57;93080.03;;;20.52;100.00
70745;BME280;59284;31.390;34.904;2022-10-31T06:27:24;93072.06;;;20.59;100.00
70745;BME280;59284;31.390;34.904;2022-10-31T06:29:50;93078.31;;;20.72;100.00
70745;BME280;59284;31.390;34.904;2022-10-31T06:32:16;93087.84;;;20.63;100.00
70745;BME280;59284;31.390;34.904;2022-10-31T06:34:43;93082.94;;;21.32;100.00
70745;BME280;59284;31.390;34.904;2022-10-31T06:37:11;93055.59;;;22.46;100.00
70745;BME280;59284;31.390;34.904;2022-10-31T06:39:37;93035.06;;;23.32;100.00
70745;BME280;59284;31.390;34.904;2022-10-31T06:42:03;93111.28;;;21.82;100.00
70745;BME280;59284;31.390;34.904;2022-10-31T06:44:30;93121.47;;;22.10;100.00
70745;BME280;59284;31.390;34.904;2022-10-31T06:46:56;93174.94;;;20.86;100.00
70745;BME280;59284;31.390;34.904;2022-10-31T06:49:21;93180.84;;;21.04;100.00
70745;BME280;59284;31.390;34.904;2022-10-31T06:51:48;93182.94;;;21.20;100.00
70745;BME280;59284;31.390;34.904;2022-10-31T06:54:14;93175.09;;;21.46;100.00
70745;BME280;59284;31.390;34.904;2022-10-31T06:56:40;93139.41;;;22.45;100.00
70745;BME280;59284;31.390;34.904;2022-10-31T06:59:05;93082.78;;;23.48;100.00
70745;BME280;59284;31.390;34.904;2022-10-31T07:01:31;93082.69;;;24.35;100.00
70745;BME280;59284;31.390;34.904;2022-10-31T07:03:57;93137.44;;;24.42;100.00
70745;BME280;59284;31.390;34.904;2022-10-31T07:06:23;93180.50;;;23.94;100.00
70745;BME280;59284;31.390;34.904;2022-10-31T07:08:48;93179.47;;;24.08;100.00
70745;BME280;59284;31.390;34.904;2022-10-31T07:11:14;93152.41;;;24.16;100.00
70745;BME280;59284;31.390;34.904;2022-10-31T07:13:40;93012.31;;;23.86;100.00
70745;BME280;59284;31.390;34.904;2022-10-31T07:16:06;92932.75;;;22.14;100.00
70745;BME280;59284;31.390;34.904;2022-10-31T07:18:32;92943.88;;;21.59;100.00
70745;BME280;59284;31.390;34.904;2022-10-31T07:20:58;93131.16;;;21.33;100.00
70745;BME280;59284;31.390;34.904;2022-10-31T07:23:24;93340.81;;;21.18;100.00
70745;BME280;59284;31.390;34.904;2022-10-31T07:25:57;93474.63;;;20.96;100.00
70745;BME280;59284;31.390;34.904;2022-10-31T07:28:24;93457.78;;;21.45;100.00
70745;BME280;59284;31.390;34.904;2022-10-31T07:30:51;93465.47;;;21.22;100.00
70745;BME280;59284;31.390;34.904;2022-10-31T07:33:17;93453.06;;;21.66;100.00
70745;BME280;59284;31.390;34.904;2022-10-31T07:35:42;93432.41;;;22.73;100.00
70745;BME280;59284;31.390;34.904;2022-10-31T07:38:11;93408.59;;;21.65;100.00
70745;BME280;59284;31.390;34.904;2022-10-31T07:40:41;93397.00;;;22.00;100.00
70745;BME280;59284;31.390;34.904;2022-10-31T07:43:08;93328.06;;;23.28;100.00
70745;BME280;59284;31.390;34.904;2022-10-31T07:45:34;93272.31;;;22.72;100.00
70745;BME280;59284;31.390;34.904;2022-10-31T07:47:59;93258.47;;;22.61;100.00
70745;BME280;59284;31.390;34.904;2022-10-31T07:50:28;93317.28;;;23.42;100.00
70745;BME280;59284;31.390;34.904;2022-10-31T07:53:02;94313.50;;;24.80;100.00
70745;BME280;59284;31.390;34.904;2022-10-31T07:55:28;94519.78;;;23.53;100.00
70745;BME280;59284;31.390;34.904;2022-10-31T07:57:57;94575.78;;;24.68;100.00
70745;BME280;59284;31.390;34.904;2022-10-31T08:00:22;94512.97;;;24.08;100.00
70745;BME280;59284;31.390;34.904;2022-10-31T08:02:48;95223.41;;;25.78;100.00
70745;BME280;59284;31.390;34.904;2022-10-31T08:05:21;95227.75;;;27.24;100.00
70745;BME280;59284;31.390;34.904;2022-10-31T08:07:46;95251.34;;;27.33;100.00
70745;BME280;59284;31.390;34.904;2022-10-31T08:10:12;95233.13;;;24.08;100.00
70745;BME280;59284;31.390;34.904;2022-10-31T08:12:38;95204.91;;;23.30;100.00
70745;BME280;59284;31.390;34.904;2022-10-31T08:15:04;95199.22;;;23.01;100.00
70745;BME280;59284;31.390;34.904;2022-10-31T08:17:35;95177.78;;;22.35;100.00
70745;BME280;59284;31.390;34.904;2022-10-31T08:20:00;95177.50;;;25.85;100.00
70745;BME280;59284;31.390;34.904;2022-10-31T08:22:26;95264.97;;;29.90;100.00
70745;BME280;59284;31.390;34.904;2022-10-31T08:24:52;95291.38;;;29.02;100.00
70745;BME280;59284;31.390;34.904;2022-10-31T08:27:19;95289.09;;;29.45;100.00
70745;BME280;59284;31.390;34.904;2022-10-31T08:29:54;95296.47;;;29.71;100.00
70745;BME280;59284;31.390;34.904;2022-10-31T08:32:20;95299.53;;;31.64;100.00
70745;BME280;59284;31.390;34.904;2022-10-31T08:34:48;95297.38;;;33.38;100.00
70745;BME280;59284;31.390;34.904;2022-10-31T08:37:16;95300.56;;;34.98;100.00
70745;BME280;59284;31.390;34.904;2022-10-31T08:39:47;95301.91;;;34.14;100.00
70745;BME280;59284;31.390;34.904;2022-10-31T08:42:16;95306.91;;;29.96;100.00
70745;BME280;59284;31.390;34.904;2022-10-31T08:44:43;95304.78;;;33.34;100.00
70745;BME280;59284;31.390;34.904;2022-10-31T08:47:09;95297.56;;;34.83;100.00
70745;BME280;59284;31.390;34.904;2022-10-31T08:49:36;95293.38;;;34.70;100.00
70745;BME280;59284;31.390;34.904;2022-10-31T08:52:01;95289.22;;;35.28;100.00
70745;BME280;59284;31.390;34.904;2022-10-31T08:54:39;95309.81;;;28.10;100.00
70745;BME280;59284;31.390;34.904;2022-10-31T08:57:07;95281.69;;;24.96;100.00
70745;BME280;59284;31.390;34.904;2022-10-31T08:59:36;95272.50;;;24.83;100.00
70745;BME280;59284;31.390;34.904;2022-10-31T09:02:07;95270.16;;;33.36;100.00
70745;BME280;59284;31.390;34.904;2022-10-31T09:04:33;95277.47;;;31.76;100.00
70745;BME280;59284;31.390;34.904;2022-10-31T09:06:59;95283.78;;;31.66;100.00
70745;BME280;59284;31.390;34.904;2022-10-31T09:09:25;95270.81;;;31.18;100.00
70745;BME280;59284;31.390;34.904;2022-10-31T09:11:52;95271.28;;;32.18;100.00
70745;BME280;59284;31.390;34.904;2022-10-31T09:14:20;95266.97;;;32.92;100.00
70745;BME280;59284;31.390;34.904;2022-10-31T09:16:52;95280.75;;;32.94;100.00
70745;BME280;59284;31.390;34.904;2022-10-31T09:19:18;95271.88;;;29.87;100.00
70745;BME280;59284;31.390;34.904;2022-10-31T09:21:45;95259.13;;;33.75;100.00
70745;BME280;59284;31.390;34.904;2022-10-31T09:24:11;95266.91;;;25.49;100.00
70745;BME280;59284;31.390;34.904;2022-10-31T09:26:43;95263.22;;;30.67;100.00
70745;BME280;59284;31.390;34.904;2022-10-31T09:29:12;95254.81;;;26.98;100.00
70745;BME280;59284;31.390;34.904;2022-10-31T09:31:46;95244.50;;;26.51;100.00
70745;BME280;59284;31.390;34.904;2022-10-31T09:34:30;95225.38;;;24.73;100.00
70745;BME280;59284;31.390;34.904;2022-10-31T09:37:03;95232.03;;;29.25;100.00
70745;BME280;59284;31.390;34.904;2022-10-31T09:39:30;95228.44;;;34.77;100.00
70745;BME280;59284;31.390;34.904;2022-10-31T09:42:40;95228.53;;;36.81;100.00
70745;BME280;59284;31.390;34.904;2022-10-31T09:45:39;95225.00;;;35.36;100.00
70745;BME280;59284;31.390;34.904;2022-10-31T09:51:50;95218.13;;;36.70;100.00
70745;BME280;59284;31.390;34.904;2022-10-31T09:58:48;95212.44;;;36.28;100.00
70745;BME280;59284;31.390;34.904;2022-10-31T10:07:44;95206.13;;;34.01;100.00
70745;BME280;59284;31.390;34.904;2022-10-31T10:10:24;95202.38;;;34.74;100.00
70745;BME280;59284;31.390;34.904;2022-10-31T10:19:38;95179.94;;;34.77;100.00
70745;BME280;59284;31.390;34.904;2022-10-31T10:22:31;95175.53;;;37.92;100.00
70745;BME280;59284;31.390;34.904;2022-10-31T10:25:24;95179.63;;;37.15;100.00
70745;BME280;59284;31.390;34.904;2022-10-31T10:28:17;95181.63;;;32.96;100.00
70745;BME280;59284;31.390;34.904;2022-10-31T10:30:53;95189.22;;;34.00;100.00
70745;BME280;59284;31.390;34.904;2022-10-31T10:34:11;95173.59;;;32.64;100.00
70745;BME280;59284;31.390;34.904;2022-10-31T10:36:53;95182.16;;;26.97;100.00
70745;BME280;59284;31.390;34.904;2022-10-31T10:39:41;95187.31;;;27.61;100.00
70745;BME280;59284;31.390;34.904;2022-10-31T10:42:31;95166.50;;;34.64;100.00
70745;BME280;59284;31.390;34.904;2022-10-31T10:45:21;95175.00;;;28.53;100.00
70745;BME280;59284;31.390;34.904;2022-10-31T10:51:23;95153.47;;;30.10;100.00
70745;BME280;59284;31.390;34.904;2022-10-31T10:57:14;95155.69;;;34.01;100.00
70745;BME280;59284;31.390;34.904;2022-10-31T11:00:20;95152.88;;;29.68;100.00
70745;BME280;59284;31.390;34.904;2022-10-31T11:02:55;95154.78;;;28.97;100.00
70745;BME280;59284;31.390;34.904;2022-10-31T11:08:41;95148.50;;;25.45;100.00
70745;BME280;59284;31.390;34.904;2022-10-31T11:17:30;95140.44;;;27.74;100.00
70745;BME280;59284;31.390;34.904;2022-10-31T11:20:28;95132.22;;;32.62;100.00
70745;BME280;59284;31.390;34.904;2022-10-31T11:23:16;95131.38;;;32.16;100.00
70745;BME280;59284;31.390;34.904;2022-10-31T11:25:59;95144.16;;;26.86;100.00
70745;BME280;59284;31.390;34.904;2022-10-31T11:28:27;95137.53;;;25.46;100.00
70745;BME280;59284;31.390;34.904;2022-10-31T11:30:59;95134.88;;;25.46;100.00
70745;BME280;59284;31.390;34.904;2022-10-31T11:33:35;95132.50;;;25.34;100.00
70745;BME280;59284;31.390;34.904;2022-10-31T11:36:14;95134.94;;;25.82;100.00
70745;BME280;59284;31.390;34.904;2022-10-31T11:38:42;95131.31;;;31.25;100.00
70745;BME280;59284;31.390;34.904;2022-10-31T11:41:13;95129.34;;;34.09;100.00
70745;BME280;59284;31.390;34.904;2022-10-31T11:43:55;95123.97;;;33.13;100.00
70745;BME280;59284;31.390;34.904;2022-10-31T11:46:27;95128.78;;;31.93;100.00
70745;BME280;59284;31.390;34.904;2022-10-31T11:48:56;95122.69;;;28.63;100.00
70745;BME280;59284;31.390;34.904;2022-10-31T11:51:25;95133.88;;;26.88;100.00
70745;BME280;59284;31.390;34.904;2022-10-31T11:54:03;95121.75;;;26.38;100.00
70745;BME280;59284;31.390;34.904;2022-10-31T11:56:40;95115.75;;;27.59;100.00
70745;BME280;59284;31.390;34.904;2022-10-31T11:59:17;95116.72;;;25.80;100.00
70745;BME280;59284;31.390;34.904;2022-10-31T12:01:53;95118.66;;;26.01;100.00
70745;BME280;59284;31.390;34.904;2022-10-31T12:04:43;95119.31;;;28.96;100.00
70745;BME280;59284;31.390;34.904;2022-10-31T12:07:11;95115.53;;;27.19;100.00
70745;BME280;59284;31.390;34.904;2022-10-31T12:09:38;95108.34;;;31.99;100.00
70745;BME280;59284;31.390;34.904;2022-10-31T12:12:32;95112.19;;;30.11;100.00
70745;BME280;59284;31.390;34.904;2022-10-31T12:40:07;95110.09;;;29.38;100.00
70745;BME280;59284;31.390;34.904;2022-10-31T12:43:01;95113.69;;;25.82;100.00
70745;BME280;59284;31.390;34.904;2022-10-31T12:53:54;95090.28;;;30.66;100.00
70745;BME280;59284;31.390;34.904;2022-10-31T12:59:02;95097.63;;;32.64;100.00
70745;BME280;59284;31.390;34.904;2022-10-31T13:01:34;95102.84;;;33.28;100.00
70745;BME280;59284;31.390;34.904;2022-10-31T13:07:13;95099.75;;;30.93;100.00
70745;BME280;59284;31.390;34.904;2022-10-31T13:12:26;95112.06;;;27.32;100.00
70745;BME280;59284;31.390;34.904;2022-10-31T13:14:59;95101.84;;;28.88;100.00
70745;BME280;59284;31.390;34.904;2022-10-31T13:17:37;95097.25;;;30.83;100.00
70745;BME280;59284;31.390;34.904;2022-10-31T13:20:20;95094.59;;;31.61;100.00
70745;BME280;59284;31.390;34.904;2022-10-31T13:22:49;95099.16;;;27.96;100.00
70745;BME280;59284;31.390;34.904;2022-10-31T13:25:20;95098.88;;;27.80;100.00
70745;BME280;59284;31.390;34.904;2022-10-31T13:27:56;95094.75;;;30.26;100.00
70745;BME280;59284;31.390;34.904;2022-10-31T13:30:25;95100.19;;;29.01;100.00
70745;BME280;59284;31.390;34.904;2022-10-31T13:33:00;95099.03;;;29.36;100.00
70745;BME280;59284;31.390;34.904;2022-10-31T13:35:42;95103.44;;;27.83;100.00
70745;BME280;59284;31.390;34.904;2022-10-31T13:41:11;95106.31;;;28.13;100.00
70745;BME280;59284;31.390;34.904;2022-10-31T13:46:44;95108.06;;;26.22;100.00
70745;BME280;59284;31.390;34.904;2022-10-31T13:49:41;95115.19;;;25.72;100.00
70745;BME280;59284;31.390;34.904;2022-10-31T13:52:14;95114.78;;;25.70;100.00
70745;BME280;59284;31.390;34.904;2022-10-31T13:54:44;95113.31;;;24.90;100.00
70745;BME280;59284;31.390;34.904;2022-10-31T13:59:53;95102.72;;;26.18;100.00
70745;BME280;59284;31.390;34.904;2022-10-31T14:02:31;95116.31;;;24.85;100.00
70745;BME280;59284;31.390;34.904;2022-10-31T14:05:04;95108.88;;;23.33;100.00
70745;BME280;59284;31.390;34.904;2022-10-31T14:07:31;95101.66;;;22.70;100.00
70745;BME280;59284;31.390;34.904;2022-10-31T14:10:07;95100.50;;;22.19;100.00
70745;BME280;59284;31.390;34.904;2022-10-31T14:12:46;95090.41;;;22.02;100.00
70745;BME280;59284;31.390;34.904;2022-10-31T14:15:24;95085.75;;;21.73;100.00
70745;BME280;59284;31.390;34.904;2022-10-31T14:18:02;95083.94;;;21.99;100.00
70745;BME280;59284;31.390;34.904;2022-10-31T14:20:40;95086.28;;;21.82;100.00
70745;BME280;59284;31.390;34.904;2022-10-31T14:25:50;95074.69;;;21.25;100.00
70745;BME280;59284;31.390;34.904;2022-10-31T14:28:31;95071.38;;;21.51;100.00
70745;BME280;59284;31.390;34.904;2022-10-31T14:30:58;95064.38;;;21.58;100.00
70745;BME280;59284;31.390;34.904;2022-10-31T14:33:27;95071.63;;;21.23;100.00
70745;BME280;59284;31.390;34.904;2022-10-31T14:36:17;95070.25;;;21.29;100.00
70745;BME280;59284;31.390;34.904;2022-10-31T14:39:02;95065.66;;;21.07;100.00
70745;BME280;59284;31.390;34.904;2022-10-31T14:44:26;95055.53;;;20.90;100.00
70745;BME280;59284;31.390;34.904;2022-10-31T14:52:45;95025.47;;;20.41;100.00
70745;BME280;59284;31.390;34.904;2022-10-31T14:55:13;95017.19;;;20.58;100.00
70745;BME280;59284;31.390;34.904;2022-10-31T14:57:49;94995.38;;;20.22;100.00
70745;BME280;59284;31.390;34.904;2022-10-31T15:00:19;94955.22;;;20.29;100.00
70745;BME280;59284;31.390;34.904;2022-10-31T15:05:23;94821.06;;;20.01;100.00